sensor_id;sensor_type;location;lat;lon;timestamp;temperature;humidity
18103;DHT22;9178;51.120;6.192;2023-07-31T00:00:49;16.30;99.90
18103;DHT22;9178;51.120;6.192;2023-07-31T00:03:16;16.20;99.90
18103;DHT22;9178;51.120;6.192;2023-07-31T00:05:46;16.20;99.90
18103;DHT22;9178;51.120;6.192;2023-07-31T00:08:13;16.20;99.90
18103;DHT22;9178;51.120;6.192;2023-07-31T00:10:40;16.20;99.90
18103;DHT22;9178;51.120;6.192;2023-07-31T00:13:07;16.20;99.90
18103;DHT22;9178;51.120;6.192;2023-07-31T00:15:35;16.20;99.90
18103;DHT22;9178;51.120;6.192;2023-07-31T00:18:03;16.20;99.90
18103;DHT22;9178;51.120;6.192;2023-07-31T00:20:30;16.20;99.90
18103;DHT22;9178;51.120;6.192;2023-07-31T00:22:57;16.20;99.90
18103;DHT22;9178;51.120;6.192;2023-07-31T00:25:24;16.20;99.90
18103;DHT22;9178;51.120;6.192;2023-07-31T00:27:50;16.20;99.90
18103;DHT22;9178;51.120;6.192;2023-07-31T00:30:20;16.10;99.90
18103;DHT22;9178;51.120;6.192;2023-07-31T00:32:49;16.10;99.90
18103;DHT22;9178;51.120;6.192;2023-07-31T00:35:28;16.10;99.90
18103;DHT22;9178;51.120;6.192;2023-07-31T00:40:25;16.10;99.90
18103;DHT22;9178;51.120;6.192;2023-07-31T00:42:52;16.10;99.90
18103;DHT22;9178;51.120;6.192;2023-07-31T00:45:19;16.10;99.90
18103;DHT22;9178;51.120;6.192;2023-07-31T00:47:52;16.10;99.90
18103;DHT22;9178;51.120;6.192;2023-07-31T00:50:33;16.10;99.90
18103;DHT22;9178;51.120;6.192;2023-07-31T00:53:01;16.10;99.90
18103;DHT22;9178;51.120;6.192;2023-07-31T00:55:31;16.10;99.90
18103;DHT22;9178;51.120;6.192;2023-07-31T00:57:58;16.10;99.90
18103;DHT22;9178;51.120;6.192;2023-07-31T01:00:25;16.10;99.90
18103;DHT22;9178;51.120;6.192;2023-07-31T01:02:57;16.10;99.90
18103;DHT22;9178;51.120;6.192;2023-07-31T01:05:31;16.10;99.90
18103;DHT22;9178;51.120;6.192;2023-07-31T01:08:05;16.10;99.90
18103;DHT22;9178;51.120;6.192;2023-07-31T01:10:39;16.00;99.90
18103;DHT22;9178;51.120;6.192;2023-07-31T01:13:08;16.00;99.90
18103;DHT22;9178;51.120;6.192;2023-07-31T01:15:39;16.00;99.90
18103;DHT22;9178;51.120;6.192;2023-07-31T01:18:08;15.90;99.90
18103;DHT22;9178;51.120;6.192;2023-07-31T01:20:35;15.90;99.90
18103;DHT22;9178;51.120;6.192;2023-07-31T01:23:27;15.90;99.90
18103;DHT22;9178;51.120;6.192;2023-07-31T01:26:04;15.90;99.90
18103;DHT22;9178;51.120;6.192;2023-07-31T01:28:40;15.90;99.90
18103;DHT22;9178;51.120;6.192;2023-07-31T01:31:14;15.90;99.90
18103;DHT22;9178;51.120;6.192;2023-07-31T01:33:43;15.90;99.90
18103;DHT22;9178;51.120;6.192;2023-07-31T01:36:11;15.90;99.90
18103;DHT22;9178;51.120;6.192;2023-07-31T01:38:38;15.90;99.90
18103;DHT22;9178;51.120;6.192;2023-07-31T01:41:07;15.90;99.90
18103;DHT22;9178;51.120;6.192;2023-07-31T01:43:34;15.90;99.90
18103;DHT22;9178;51.120;6.192;2023-07-31T01:46:04;15.90;99.90
18103;DHT22;9178;51.120;6.192;2023-07-31T01:48:31;15.90;99.90
18103;DHT22;9178;51.120;6.192;2023-07-31T01:51:01;16.00;99.90
18103;DHT22;9178;51.120;6.192;2023-07-31T01:53:29;16.00;99.90
18103;DHT22;9178;51.120;6.192;2023-07-31T01:55:56;16.00;99.90
18103;DHT22;9178;51.120;6.192;2023-07-31T01:58:25;16.00;99.90
18103;DHT22;9178;51.120;6.192;2023-07-31T02:00:52;16.00;99.90
18103;DHT22;9178;51.120;6.192;2023-07-31T02:03:19;16.00;99.90
18103;DHT22;9178;51.120;6.192;2023-07-31T02:05:46;16.00;99.90
18103;DHT22;9178;51.120;6.192;2023-07-31T02:08:20;16.00;99.90
18103;DHT22;9178;51.120;6.192;2023-07-31T02:10:49;16.00;99.90
18103;DHT22;9178;51.120;6.192;2023-07-31T02:13:16;16.00;99.90
18103;DHT22;9178;51.120;6.192;2023-07-31T02:15:45;16.00;99.90
18103;DHT22;9178;51.120;6.192;2023-07-31T02:18:12;16.10;99.90
18103;DHT22;9178;51.120;6.192;2023-07-31T02:20:39;16.10;99.90
18103;DHT22;9178;51.120;6.192;2023-07-31T02:23:06;16.10;99.90
18103;DHT22;9178;51.120;6.192;2023-07-31T02:25:34;16.10;99.90
18103;DHT22;9178;51.120;6.192;2023-07-31T02:28:01;16.10;99.90
18103;DHT22;9178;51.120;6.192;2023-07-31T02:30:32;16.10;99.90
18103;DHT22;9178;51.120;6.192;2023-07-31T02:33:02;16.10;99.90
18103;DHT22;9178;51.120;6.192;2023-07-31T02:35:30;16.20;99.90
18103;DHT22;9178;51.120;6.192;2023-07-31T02:37:59;16.20;99.90
18103;DHT22;9178;51.120;6.192;2023-07-31T02:40:27;16.20;99.90
18103;DHT22;9178;51.120;6.192;2023-07-31T02:42:54;16.20;99.90
18103;DHT22;9178;51.120;6.192;2023-07-31T02:45:21;16.20;99.90
18103;DHT22;9178;51.120;6.192;2023-07-31T02:47:48;16.20;99.90
18103;DHT22;9178;51.120;6.192;2023-07-31T02:50:17;16.20;99.90
18103;DHT22;9178;51.120;6.192;2023-07-31T02:52:43;16.20;99.90
18103;DHT22;9178;51.120;6.192;2023-07-31T02:55:10;16.20;99.90
18103;DHT22;9178;51.120;6.192;2023-07-31T02:57:39;16.20;99.90
18103;DHT22;9178;51.120;6.192;2023-07-31T03:00:07;16.30;99.90
18103;DHT22;9178;51.120;6.192;2023-07-31T03:02:35;16.30;99.90
18103;DHT22;9178;51.120;6.192;2023-07-31T03:05:02;16.20;99.90
18103;DHT22;9178;51.120;6.192;2023-07-31T03:07:39;16.20;99.90
18103;DHT22;9178;51.120;6.192;2023-07-31T03:10:07;16.20;99.90
18103;DHT22;9178;51.120;6.192;2023-07-31T03:12:34;16.20;99.90
18103;DHT22;9178;51.120;6.192;2023-07-31T03:15:01;16.20;99.90
18103;DHT22;9178;51.120;6.192;2023-07-31T03:17:30;16.20;99.90
18103;DHT22;9178;51.120;6.192;2023-07-31T03:19:57;16.20;99.90
18103;DHT22;9178;51.120;6.192;2023-07-31T03:22:24;16.30;99.90
18103;DHT22;9178;51.120;6.192;2023-07-31T03:24:52;16.30;99.90
18103;DHT22;9178;51.120;6.192;2023-07-31T03:27:19;16.30;99.90
18103;DHT22;9178;51.120;6.192;2023-07-31T03:29:47;16.30;99.90
18103;DHT22;9178;51.120;6.192;2023-07-31T03:32:15;16.30;99.90
18103;DHT22;9178;51.120;6.192;2023-07-31T03:34:42;16.30;99.90
18103;DHT22;9178;51.120;6.192;2023-07-31T03:37:09;16.30;99.90
18103;DHT22;9178;51.120;6.192;2023-07-31T03:39:36;16.30;99.90
18103;DHT22;9178;51.120;6.192;2023-07-31T03:42:05;16.30;99.90
18103;DHT22;9178;51.120;6.192;2023-07-31T03:44:32;16.30;99.90
18103;DHT22;9178;51.120;6.192;2023-07-31T03:46:59;16.30;99.90
18103;DHT22;9178;51.120;6.192;2023-07-31T03:49:26;16.30;99.90
18103;DHT22;9178;51.120;6.192;2023-07-31T03:51:53;16.30;99.90
18103;DHT22;9178;51.120;6.192;2023-07-31T03:54:20;16.30;99.90
18103;DHT22;9178;51.120;6.192;2023-07-31T03:56:47;16.30;99.90
18103;DHT22;9178;51.120;6.192;2023-07-31T03:59:16;16.30;99.90
18103;DHT22;9178;51.120;6.192;2023-07-31T04:01:43;16.40;99.90
18103;DHT22;9178;51.120;6.192;2023-07-31T04:04:10;16.40;99.90
18103;DHT22;9178;51.120;6.192;2023-07-31T04:06:37;16.30;99.90
18103;DHT22;9178;51.120;6.192;2023-07-31T04:09:05;16.40;99.90
18103;DHT22;9178;51.120;6.192;2023-07-31T04:11:32;16.40;99.90
18103;DHT22;9178;51.120;6.192;2023-07-31T04:13:59;16.40;99.90
18103;DHT22;9178;51.120;6.192;2023-07-31T04:16:28;16.40;99.90
18103;DHT22;9178;51.120;6.192;2023-07-31T04:18:55;16.40;99.90
18103;DHT22;9178;51.120;6.192;2023-07-31T04:21:22;16.40;99.90
18103;DHT22;9178;51.120;6.192;2023-07-31T04:23:49;16.40;99.90
18103;DHT22;9178;51.120;6.192;2023-07-31T04:26:16;16.40;99.90
18103;DHT22;9178;51.120;6.192;2023-07-31T04:28:43;16.40;99.90
18103;DHT22;9178;51.120;6.192;2023-07-31T04:31:10;16.50;99.90
18103;DHT22;9178;51.120;6.192;2023-07-31T04:33:38;16.40;99.90
18103;DHT22;9178;51.120;6.192;2023-07-31T04:36:05;16.40;99.90
18103;DHT22;9178;51.120;6.192;2023-07-31T04:38:33;16.40;99.90
18103;DHT22;9178;51.120;6.192;2023-07-31T04:41:00;16.50;99.90
18103;DHT22;9178;51.120;6.192;2023-07-31T04:43:27;16.50;99.90
18103;DHT22;9178;51.120;6.192;2023-07-31T04:45:54;16.50;99.90
18103;DHT22;9178;51.120;6.192;2023-07-31T04:48:21;16.50;99.90
18103;DHT22;9178;51.120;6.192;2023-07-31T04:50:49;16.50;99.90
18103;DHT22;9178;51.120;6.192;2023-07-31T04:53:16;16.50;99.90
18103;DHT22;9178;51.120;6.192;2023-07-31T04:55:43;16.60;99.90
18103;DHT22;9178;51.120;6.192;2023-07-31T04:58:10;16.60;99.90
18103;DHT22;9178;51.120;6.192;2023-07-31T05:00:39;16.60;99.90
18103;DHT22;9178;51.120;6.192;2023-07-31T05:03:06;16.60;99.90
18103;DHT22;9178;51.120;6.192;2023-07-31T05:05:33;16.60;99.90
18103;DHT22;9178;51.120;6.192;2023-07-31T05:08:01;16.60;99.90
18103;DHT22;9178;51.120;6.192;2023-07-31T05:10:29;16.60;99.90
18103;DHT22;9178;51.120;6.192;2023-07-31T05:12:59;16.70;99.90
18103;DHT22;9178;51.120;6.192;2023-07-31T05:15:26;16.70;99.90
18103;DHT22;9178;51.120;6.192;2023-07-31T05:17:53;16.70;99.90
18103;DHT22;9178;51.120;6.192;2023-07-31T05:20:20;16.70;99.90
18103;DHT22;9178;51.120;6.192;2023-07-31T05:22:48;16.70;99.90
18103;DHT22;9178;51.120;6.192;2023-07-31T05:25:16;16.70;99.90
18103;DHT22;9178;51.120;6.192;2023-07-31T05:27:43;16.70;99.90
18103;DHT22;9178;51.120;6.192;2023-07-31T05:30:10;16.70;99.90
18103;DHT22;9178;51.120;6.192;2023-07-31T05:32:37;16.70;99.90
18103;DHT22;9178;51.120;6.192;2023-07-31T05:35:05;16.70;99.90
18103;DHT22;9178;51.120;6.192;2023-07-31T05:37:32;16.60;99.90
18103;DHT22;9178;51.120;6.192;2023-07-31T05:39:59;16.60;99.90
18103;DHT22;9178;51.120;6.192;2023-07-31T05:42:27;16.60;99.90
18103;DHT22;9178;51.120;6.192;2023-07-31T05:44:54;16.60;99.90
18103;DHT22;9178;51.120;6.192;2023-07-31T05:47:21;16.60;99.90
18103;DHT22;9178;51.120;6.192;2023-07-31T05:49:49;16.60;99.90
18103;DHT22;9178;51.120;6.192;2023-07-31T05:52:18;16.60;99.90
18103;DHT22;9178;51.120;6.192;2023-07-31T05:54:45;16.60;99.90
18103;DHT22;9178;51.120;6.192;2023-07-31T05:57:12;16.60;99.90
18103;DHT22;9178;51.120;6.192;2023-07-31T05:59:41;16.60;99.90
18103;DHT22;9178;51.120;6.192;2023-07-31T06:02:08;16.50;99.90
18103;DHT22;9178;51.120;6.192;2023-07-31T06:04:35;16.50;99.90
18103;DHT22;9178;51.120;6.192;2023-07-31T06:07:02;16.50;99.90
18103;DHT22;9178;51.120;6.192;2023-07-31T06:09:29;16.50;99.90
18103;DHT22;9178;51.120;6.192;2023-07-31T06:11:56;16.60;99.90
18103;DHT22;9178;51.120;6.192;2023-07-31T06:14:24;16.60;99.90
18103;DHT22;9178;51.120;6.192;2023-07-31T06:16:53;16.60;99.90
18103;DHT22;9178;51.120;6.192;2023-07-31T06:19:20;16.60;99.90
18103;DHT22;9178;51.120;6.192;2023-07-31T06:21:47;16.60;99.90
18103;DHT22;9178;51.120;6.192;2023-07-31T06:24:14;16.60;99.90
18103;DHT22;9178;51.120;6.192;2023-07-31T06:26:44;16.60;99.90
18103;DHT22;9178;51.120;6.192;2023-07-31T06:29:11;16.70;99.90
18103;DHT22;9178;51.120;6.192;2023-07-31T06:31:38;16.60;99.90
18103;DHT22;9178;51.120;6.192;2023-07-31T06:34:06;16.60;99.90
18103;DHT22;9178;51.120;6.192;2023-07-31T06:36:33;16.60;99.90
18103;DHT22;9178;51.120;6.192;2023-07-31T06:39:00;16.70;99.90
18103;DHT22;9178;51.120;6.192;2023-07-31T06:41:28;16.70;99.90
18103;DHT22;9178;51.120;6.192;2023-07-31T06:43:55;16.70;99.90
18103;DHT22;9178;51.120;6.192;2023-07-31T06:46:22;16.70;99.90
18103;DHT22;9178;51.120;6.192;2023-07-31T06:48:49;16.70;99.90
18103;DHT22;9178;51.120;6.192;2023-07-31T06:51:17;16.70;99.90
18103;DHT22;9178;51.120;6.192;2023-07-31T06:53:46;16.70;99.90
18103;DHT22;9178;51.120;6.192;2023-07-31T06:56:13;16.70;99.90
18103;DHT22;9178;51.120;6.192;2023-07-31T06:58:40;16.70;99.90
18103;DHT22;9178;51.120;6.192;2023-07-31T07:01:07;16.70;99.90
18103;DHT22;9178;51.120;6.192;2023-07-31T07:03:34;16.70;99.90
18103;DHT22;9178;51.120;6.192;2023-07-31T07:06:01;16.70;99.90
18103;DHT22;9178;51.120;6.192;2023-07-31T07:08:30;16.70;99.90
18103;DHT22;9178;51.120;6.192;2023-07-31T07:10:57;16.70;99.90
18103;DHT22;9178;51.120;6.192;2023-07-31T07:13:24;16.70;99.90
18103;DHT22;9178;51.120;6.192;2023-07-31T07:15:51;16.70;99.90
18103;DHT22;9178;51.120;6.192;2023-07-31T07:18:19;16.60;99.90
18103;DHT22;9178;51.120;6.192;2023-07-31T07:20:47;16.60;99.90
18103;DHT22;9178;51.120;6.192;2023-07-31T07:23:14;16.60;99.90
18103;DHT22;9178;51.120;6.192;2023-07-31T07:25:43;16.60;99.90
18103;DHT22;9178;51.120;6.192;2023-07-31T07:28:10;16.60;99.90
18103;DHT22;9178;51.120;6.192;2023-07-31T07:30:38;16.60;99.90
18103;DHT22;9178;51.120;6.192;2023-07-31T07:33:05;16.60;99.90
18103;DHT22;9178;51.120;6.192;2023-07-31T07:35:33;16.60;99.90
18103;DHT22;9178;51.120;6.192;2023-07-31T07:38:01;16.60;99.90
18103;DHT22;9178;51.120;6.192;2023-07-31T07:40:28;16.70;99.90
18103;DHT22;9178;51.120;6.192;2023-07-31T07:42:57;16.70;99.90
18103;DHT22;9178;51.120;6.192;2023-07-31T07:45:25;16.70;99.90
18103;DHT22;9178;51.120;6.192;2023-07-31T07:47:52;16.70;99.90
18103;DHT22;9178;51.120;6.192;2023-07-31T07:50:20;16.70;99.90
18103;DHT22;9178;51.120;6.192;2023-07-31T07:52:47;16.70;99.90
18103;DHT22;9178;51.120;6.192;2023-07-31T07:55:14;16.70;99.90
18103;DHT22;9178;51.120;6.192;2023-07-31T07:57:41;16.70;99.90
18103;DHT22;9178;51.120;6.192;2023-07-31T08:00:12;16.70;99.90
18103;DHT22;9178;51.120;6.192;2023-07-31T08:02:51;16.70;99.90
18103;DHT22;9178;51.120;6.192;2023-07-31T08:05:20;16.70;99.90
18103;DHT22;9178;51.120;6.192;2023-07-31T08:07:47;16.70;99.90
18103;DHT22;9178;51.120;6.192;2023-07-31T08:10:14;16.80;99.90
18103;DHT22;9178;51.120;6.192;2023-07-31T08:12:41;16.80;99.90
18103;DHT22;9178;51.120;6.192;2023-07-31T08:15:08;16.80;99.90
18103;DHT22;9178;51.120;6.192;2023-07-31T08:17:38;16.90;99.90
18103;DHT22;9178;51.120;6.192;2023-07-31T08:20:07;16.90;99.90
18103;DHT22;9178;51.120;6.192;2023-07-31T08:22:34;16.90;99.90
18103;DHT22;9178;51.120;6.192;2023-07-31T08:25:01;16.90;99.90
18103;DHT22;9178;51.120;6.192;2023-07-31T08:27:28;16.90;99.90
18103;DHT22;9178;51.120;6.192;2023-07-31T08:29:59;16.90;99.90
18103;DHT22;9178;51.120;6.192;2023-07-31T08:32:26;16.80;99.90
18103;DHT22;9178;51.120;6.192;2023-07-31T08:35:06;16.90;99.90
18103;DHT22;9178;51.120;6.192;2023-07-31T08:37:33;16.90;99.90
18103;DHT22;9178;51.120;6.192;2023-07-31T08:40:01;16.90;99.90
18103;DHT22;9178;51.120;6.192;2023-07-31T08:42:28;16.90;99.90
18103;DHT22;9178;51.120;6.192;2023-07-31T08:44:56;16.90;99.90
18103;DHT22;9178;51.120;6.192;2023-07-31T08:47:26;16.90;99.90
18103;DHT22;9178;51.120;6.192;2023-07-31T08:49:54;16.90;99.90
18103;DHT22;9178;51.120;6.192;2023-07-31T08:52:23;16.90;99.90
18103;DHT22;9178;51.120;6.192;2023-07-31T08:54:51;17.00;99.90
18103;DHT22;9178;51.120;6.192;2023-07-31T08:57:22;17.00;99.90
18103;DHT22;9178;51.120;6.192;2023-07-31T08:59:50;17.10;99.90
18103;DHT22;9178;51.120;6.192;2023-07-31T09:02:19;17.10;99.90
18103;DHT22;9178;51.120;6.192;2023-07-31T09:04:46;17.10;99.90
18103;DHT22;9178;51.120;6.192;2023-07-31T09:07:14;17.10;99.90
18103;DHT22;9178;51.120;6.192;2023-07-31T09:09:46;17.10;99.90
18103;DHT22;9178;51.120;6.192;2023-07-31T09:12:13;17.10;99.90
18103;DHT22;9178;51.120;6.192;2023-07-31T09:14:40;17.00;99.90
18103;DHT22;9178;51.120;6.192;2023-07-31T09:17:08;17.10;99.90
18103;DHT22;9178;51.120;6.192;2023-07-31T09:19:36;17.20;99.90
18103;DHT22;9178;51.120;6.192;2023-07-31T09:22:04;17.20;99.90
18103;DHT22;9178;51.120;6.192;2023-07-31T09:24:32;17.20;99.90
18103;DHT22;9178;51.120;6.192;2023-07-31T09:27:01;17.20;99.90
18103;DHT22;9178;51.120;6.192;2023-07-31T09:29:31;17.20;99.90
18103;DHT22;9178;51.120;6.192;2023-07-31T09:31:59;17.20;99.90
18103;DHT22;9178;51.120;6.192;2023-07-31T09:34:30;17.20;99.90
18103;DHT22;9178;51.120;6.192;2023-07-31T09:37:06;17.20;99.90
18103;DHT22;9178;51.120;6.192;2023-07-31T09:39:45;17.20;99.90
18103;DHT22;9178;51.120;6.192;2023-07-31T09:42:25;17.20;99.90
18103;DHT22;9178;51.120;6.192;2023-07-31T09:44:52;17.20;99.90
18103;DHT22;9178;51.120;6.192;2023-07-31T09:47:22;17.20;99.90
18103;DHT22;9178;51.120;6.192;2023-07-31T09:49:50;17.20;99.90
18103;DHT22;9178;51.120;6.192;2023-07-31T09:52:17;17.30;99.90
18103;DHT22;9178;51.120;6.192;2023-07-31T09:54:45;17.30;99.90
18103;DHT22;9178;51.120;6.192;2023-07-31T09:57:14;17.30;99.90
18103;DHT22;9178;51.120;6.192;2023-07-31T09:59:42;17.40;99.90
18103;DHT22;9178;51.120;6.192;2023-07-31T10:02:15;17.40;99.90
18103;DHT22;9178;51.120;6.192;2023-07-31T10:04:49;17.40;99.90
18103;DHT22;9178;51.120;6.192;2023-07-31T10:07:18;17.50;99.90
18103;DHT22;9178;51.120;6.192;2023-07-31T10:09:46;17.50;99.90
18103;DHT22;9178;51.120;6.192;2023-07-31T10:12:17;17.60;99.90
18103;DHT22;9178;51.120;6.192;2023-07-31T10:14:45;17.60;99.90
18103;DHT22;9178;51.120;6.192;2023-07-31T10:17:13;17.60;99.90
18103;DHT22;9178;51.120;6.192;2023-07-31T10:19:41;17.70;99.90
18103;DHT22;9178;51.120;6.192;2023-07-31T10:22:08;17.70;99.90
18103;DHT22;9178;51.120;6.192;2023-07-31T10:24:37;17.70;99.90
18103;DHT22;9178;51.120;6.192;2023-07-31T10:27:04;17.70;99.90
18103;DHT22;9178;51.120;6.192;2023-07-31T10:29:33;17.70;99.90
18103;DHT22;9178;51.120;6.192;2023-07-31T10:32:02;17.70;99.90
18103;DHT22;9178;51.120;6.192;2023-07-31T10:34:33;17.70;99.90
18103;DHT22;9178;51.120;6.192;2023-07-31T10:37:23;17.70;99.90
18103;DHT22;9178;51.120;6.192;2023-07-31T10:40:03;17.80;99.90
18103;DHT22;9178;51.120;6.192;2023-07-31T10:42:33;17.80;99.90
18103;DHT22;9178;51.120;6.192;2023-07-31T10:45:04;17.90;99.90
18103;DHT22;9178;51.120;6.192;2023-07-31T10:47:36;18.00;99.90
18103;DHT22;9178;51.120;6.192;2023-07-31T10:50:16;18.10;99.90
18103;DHT22;9178;51.120;6.192;2023-07-31T10:52:46;18.10;99.90
18103;DHT22;9178;51.120;6.192;2023-07-31T10:55:26;18.10;99.90
18103;DHT22;9178;51.120;6.192;2023-07-31T10:57:53;18.20;99.90
18103;DHT22;9178;51.120;6.192;2023-07-31T11:00:26;18.20;99.90
18103;DHT22;9178;51.120;6.192;2023-07-31T11:03:03;18.20;99.90
18103;DHT22;9178;51.120;6.192;2023-07-31T11:05:42;18.20;99.90
18103;DHT22;9178;51.120;6.192;2023-07-31T11:08:13;18.20;99.90
18103;DHT22;9178;51.120;6.192;2023-07-31T11:10:41;18.20;99.90
18103;DHT22;9178;51.120;6.192;2023-07-31T11:13:11;18.30;99.90
18103;DHT22;9178;51.120;6.192;2023-07-31T11:15:39;18.30;99.90
18103;DHT22;9178;51.120;6.192;2023-07-31T11:18:06;18.30;99.90
18103;DHT22;9178;51.120;6.192;2023-07-31T11:20:39;18.30;99.90
18103;DHT22;9178;51.120;6.192;2023-07-31T11:23:10;18.30;99.90
18103;DHT22;9178;51.120;6.192;2023-07-31T11:25:38;18.40;99.90
18103;DHT22;9178;51.120;6.192;2023-07-31T11:28:09;18.40;99.90
18103;DHT22;9178;51.120;6.192;2023-07-31T11:30:38;18.40;99.90
18103;DHT22;9178;51.120;6.192;2023-07-31T11:33:08;18.40;99.90
18103;DHT22;9178;51.120;6.192;2023-07-31T11:35:41;18.50;99.90
18103;DHT22;9178;51.120;6.192;2023-07-31T11:38:14;18.50;99.90
18103;DHT22;9178;51.120;6.192;2023-07-31T11:40:48;18.50;99.90
18103;DHT22;9178;51.120;6.192;2023-07-31T11:43:15;18.50;99.90
18103;DHT22;9178;51.120;6.192;2023-07-31T11:45:47;18.40;99.90
18103;DHT22;9178;51.120;6.192;2023-07-31T11:48:21;18.40;99.90
18103;DHT22;9178;51.120;6.192;2023-07-31T11:50:50;18.40;99.90
18103;DHT22;9178;51.120;6.192;2023-07-31T11:53:32;18.40;99.90
18103;DHT22;9178;51.120;6.192;2023-07-31T11:56:01;18.40;99.90
18103;DHT22;9178;51.120;6.192;2023-07-31T11:58:31;18.40;99.90
18103;DHT22;9178;51.120;6.192;2023-07-31T12:01:03;18.40;99.90
18103;DHT22;9178;51.120;6.192;2023-07-31T12:03:31;18.30;99.90
18103;DHT22;9178;51.120;6.192;2023-07-31T12:05:59;18.40;99.90
18103;DHT22;9178;51.120;6.192;2023-07-31T12:08:26;18.40;99.90
18103;DHT22;9178;51.120;6.192;2023-07-31T12:11:02;18.40;99.90
18103;DHT22;9178;51.120;6.192;2023-07-31T12:13:31;18.40;99.90
18103;DHT22;9178;51.120;6.192;2023-07-31T12:15:59;18.60;99.90
18103;DHT22;9178;51.120;6.192;2023-07-31T12:18:36;18.70;99.90
18103;DHT22;9178;51.120;6.192;2023-07-31T12:21:05;18.80;99.90
18103;DHT22;9178;51.120;6.192;2023-07-31T12:23:33;18.90;99.90
18103;DHT22;9178;51.120;6.192;2023-07-31T12:26:01;18.90;99.90
18103;DHT22;9178;51.120;6.192;2023-07-31T12:28:28;19.00;99.90
18103;DHT22;9178;51.120;6.192;2023-07-31T12:30:57;19.10;99.90
18103;DHT22;9178;51.120;6.192;2023-07-31T12:33:30;19.20;99.90
18103;DHT22;9178;51.120;6.192;2023-07-31T12:36:00;19.40;99.90
18103;DHT22;9178;51.120;6.192;2023-07-31T12:38:28;19.40;99.90
18103;DHT22;9178;51.120;6.192;2023-07-31T12:40:55;19.40;99.90
18103;DHT22;9178;51.120;6.192;2023-07-31T12:43:23;19.40;99.90
18103;DHT22;9178;51.120;6.192;2023-07-31T12:45:50;19.40;99.90
18103;DHT22;9178;51.120;6.192;2023-07-31T12:48:17;19.50;99.90
18103;DHT22;9178;51.120;6.192;2023-07-31T12:50:44;19.60;99.90
18103;DHT22;9178;51.120;6.192;2023-07-31T12:53:16;19.70;99.90
18103;DHT22;9178;51.120;6.192;2023-07-31T12:55:43;19.90;99.90
18103;DHT22;9178;51.120;6.192;2023-07-31T12:58:10;20.20;99.90
18103;DHT22;9178;51.120;6.192;2023-07-31T13:00:37;20.40;99.90
18103;DHT22;9178;51.120;6.192;2023-07-31T13:03:04;20.60;99.90
18103;DHT22;9178;51.120;6.192;2023-07-31T13:05:32;20.90;99.90
18103;DHT22;9178;51.120;6.192;2023-07-31T13:07:59;21.20;99.90
18103;DHT22;9178;51.120;6.192;2023-07-31T13:10:29;21.40;99.90
18103;DHT22;9178;51.120;6.192;2023-07-31T13:12:56;21.50;99.90
18103;DHT22;9178;51.120;6.192;2023-07-31T13:15:23;21.90;99.90
18103;DHT22;9178;51.120;6.192;2023-07-31T13:17:50;22.20;99.90
18103;DHT22;9178;51.120;6.192;2023-07-31T13:20:20;22.30;99.90
18103;DHT22;9178;51.120;6.192;2023-07-31T13:22:48;22.20;99.90
18103;DHT22;9178;51.120;6.192;2023-07-31T13:25:15;22.30;99.90
18103;DHT22;9178;51.120;6.192;2023-07-31T13:27:46;22.60;99.90
18103;DHT22;9178;51.120;6.192;2023-07-31T13:30:16;22.80;99.90
18103;DHT22;9178;51.120;6.192;2023-07-31T13:32:43;22.70;99.90
18103;DHT22;9178;51.120;6.192;2023-07-31T13:35:10;22.60;99.90
18103;DHT22;9178;51.120;6.192;2023-07-31T13:37:37;22.30;99.90
18103;DHT22;9178;51.120;6.192;2023-07-31T13:40:05;22.10;99.90
18103;DHT22;9178;51.120;6.192;2023-07-31T13:42:32;22.00;99.90
18103;DHT22;9178;51.120;6.192;2023-07-31T13:45:01;21.90;99.90
18103;DHT22;9178;51.120;6.192;2023-07-31T13:47:29;21.90;99.90
18103;DHT22;9178;51.120;6.192;2023-07-31T13:49:57;21.80;99.90
18103;DHT22;9178;51.120;6.192;2023-07-31T13:52:24;21.60;99.90
18103;DHT22;9178;51.120;6.192;2023-07-31T13:54:51;21.40;99.90
18103;DHT22;9178;51.120;6.192;2023-07-31T13:57:19;21.30;99.90
18103;DHT22;9178;51.120;6.192;2023-07-31T13:59:46;21.10;99.90
18103;DHT22;9178;51.120;6.192;2023-07-31T14:02:15;21.00;99.90
18103;DHT22;9178;51.120;6.192;2023-07-31T14:04:42;20.90;99.90
18103;DHT22;9178;51.120;6.192;2023-07-31T14:07:09;20.80;99.90
18103;DHT22;9178;51.120;6.192;2023-07-31T14:09:36;20.70;99.90
18103;DHT22;9178;51.120;6.192;2023-07-31T14:12:04;20.60;99.90
18103;DHT22;9178;51.120;6.192;2023-07-31T14:14:31;20.60;99.90
18103;DHT22;9178;51.120;6.192;2023-07-31T14:16:59;20.50;99.90
18103;DHT22;9178;51.120;6.192;2023-07-31T14:19:28;20.50;99.90
18103;DHT22;9178;51.120;6.192;2023-07-31T14:21:55;20.50;99.90
18103;DHT22;9178;51.120;6.192;2023-07-31T14:24:25;20.50;99.90
18103;DHT22;9178;51.120;6.192;2023-07-31T14:26:52;20.50;99.90
18103;DHT22;9178;51.120;6.192;2023-07-31T14:29:19;20.60;99.90
18103;DHT22;9178;51.120;6.192;2023-07-31T14:31:46;20.70;99.90
18103;DHT22;9178;51.120;6.192;2023-07-31T14:34:13;20.80;99.90
18103;DHT22;9178;51.120;6.192;2023-07-31T14:36:42;20.80;99.90
18103;DHT22;9178;51.120;6.192;2023-07-31T14:39:10;20.70;99.90
18103;DHT22;9178;51.120;6.192;2023-07-31T14:41:37;20.60;99.90
18103;DHT22;9178;51.120;6.192;2023-07-31T14:44:04;20.60;99.90
18103;DHT22;9178;51.120;6.192;2023-07-31T14:46:36;20.50;99.90
18103;DHT22;9178;51.120;6.192;2023-07-31T14:49:03;20.40;99.90
18103;DHT22;9178;51.120;6.192;2023-07-31T14:51:30;20.40;99.90
18103;DHT22;9178;51.120;6.192;2023-07-31T14:53:59;20.30;99.90
18103;DHT22;9178;51.120;6.192;2023-07-31T14:56:26;20.20;99.90
18103;DHT22;9178;51.120;6.192;2023-07-31T14:58:57;20.20;99.90
18103;DHT22;9178;51.120;6.192;2023-07-31T15:01:24;20.10;99.90
18103;DHT22;9178;51.120;6.192;2023-07-31T15:03:51;20.00;99.90
18103;DHT22;9178;51.120;6.192;2023-07-31T15:06:18;20.00;99.90
18103;DHT22;9178;51.120;6.192;2023-07-31T15:08:45;19.90;99.90
18103;DHT22;9178;51.120;6.192;2023-07-31T15:11:14;19.90;99.90
18103;DHT22;9178;51.120;6.192;2023-07-31T15:13:41;19.90;99.90
18103;DHT22;9178;51.120;6.192;2023-07-31T15:16:09;19.80;99.90
18103;DHT22;9178;51.120;6.192;2023-07-31T15:18:36;19.80;99.90
18103;DHT22;9178;51.120;6.192;2023-07-31T15:21:11;19.70;99.90
18103;DHT22;9178;51.120;6.192;2023-07-31T15:23:38;19.60;99.90
18103;DHT22;9178;51.120;6.192;2023-07-31T15:26:05;19.60;99.90
18103;DHT22;9178;51.120;6.192;2023-07-31T15:28:33;19.50;99.90
18103;DHT22;9178;51.120;6.192;2023-07-31T15:31:02;19.40;99.90
18103;DHT22;9178;51.120;6.192;2023-07-31T15:33:30;19.40;99.90
18103;DHT22;9178;51.120;6.192;2023-07-31T15:35:58;19.30;99.90
18103;DHT22;9178;51.120;6.192;2023-07-31T15:38:32;19.20;99.90
18103;DHT22;9178;51.120;6.192;2023-07-31T15:41:00;19.10;99.90
18103;DHT22;9178;51.120;6.192;2023-07-31T15:43:39;19.00;99.90
18103;DHT22;9178;51.120;6.192;2023-07-31T15:46:07;19.00;99.90
18103;DHT22;9178;51.120;6.192;2023-07-31T15:48:34;18.80;99.90
18103;DHT22;9178;51.120;6.192;2023-07-31T15:51:03;18.70;99.90
18103;DHT22;9178;51.120;6.192;2023-07-31T15:53:33;18.70;99.90
18103;DHT22;9178;51.120;6.192;2023-07-31T15:56:00;18.70;99.90